Time,TemperatureF,DewpointF,PressureIn,WindDirection,WindDirectionDegrees,WindSpeedMPH,WindSpeedGustMPH,Humidity,HourlyPrecipIn,Conditions,Clouds,dailyrainin,SoftwareType,DateUTC
2013-04-21 00:00:00,60.4,54.9,30.05,North,0,0.0,6.0,82,0.00,,,-99.99,WeatherLink 5.7,2013-04-21 04:00:00,
2013-04-21 00:15:00,60.3,54.8,30.05,North,0,0.0,6.0,82,0.00,,,-99.99,WeatherLink 5.7,2013-04-21 04:15:00,
2013-04-21 00:30:00,60.4,55.2,30.05,North,-999,0.0,0.0,83,0.00,,,-99.99,WeatherLink 5.7,2013-04-21 04:30:00,
2013-04-21 00:45:00,60.4,55.2,30.05,North,0,0.0,4.0,83,0.00,,,-99.99,WeatherLink 5.7,2013-04-21 04:45:00,
2013-04-21 01:00:00,60.4,55.2,30.03,North,0,0.0,5.0,83,0.00,,,-99.99,WeatherLink 5.7,2013-04-21 05:00:00,
2013-04-21 01:15:00,60.5,55.0,30.02,North,0,0.0,1.0,82,0.00,,,-99.99,WeatherLink 5.7,2013-04-21 05:15:00,
2013-04-21 01:30:00,60.6,55.1,30.02,North,0,0.0,5.0,82,0.00,,,-99.99,WeatherLink 5.7,2013-04-21 05:30:00,
2013-04-21 01:45:00,60.7,55.2,30.00,North,-999,0.0,0.0,82,0.00,,,-99.99,WeatherLink 5.7,2013-04-21 05:45:00,
2013-04-21 02:00:00,60.7,55.2,30.00,North,-999,0.0,0.0,82,0.00,,,-99.99,WeatherLink 5.7,2013-04-21 06:00:00,
2013-04-21 02:15:00,60.7,54.8,30.00,North,-999,0.0,0.0,81,0.00,,,-99.99,WeatherLink 5.7,2013-04-21 06:15:00,
2013-04-21 02:30:00,60.9,55.0,29.99,North,-999,0.0,0.0,81,0.00,,,-99.99,WeatherLink 5.7,2013-04-21 06:30:00,
2013-04-21 02:45:00,60.9,55.0,29.99,North,0,0.0,2.0,81,0.00,,,-99.99,WeatherLink 5.7,2013-04-21 06:45:00,
2013-04-21 03:00:00,61.0,55.1,29.99,North,-999,0.0,0.0,81,0.00,,,-99.99,WeatherLink 5.7,2013-04-21 07:00:00,
2013-04-21 03:15:00,61.2,55.3,29.99,North,0,0.0,6.0,81,0.00,,,-99.99,WeatherLink 5.7,2013-04-21 07:15:00,
2013-04-21 03:30:00,61.2,55.3,29.99,North,0,0.0,3.0,81,0.00,,,-99.99,WeatherLink 5.7,2013-04-21 07:30:00,
2013-04-21 03:45:00,61.3,55.4,29.98,North,0,0.0,3.0,81,0.00,,,-99.99,WeatherLink 5.7,2013-04-21 07:45:00,
2013-04-21 04:00:00,61.3,55.4,29.98,North,0,0.0,3.0,81,0.00,,,-99.99,WeatherLink 5.7,2013-04-21 08:00:00,
2013-04-21 04:15:00,61.3,55.4,29.98,North,0,0.0,4.0,81,0.00,,,-99.99,WeatherLink 5.7,2013-04-21 08:15:00,
2013-04-21 04:30:00,61.4,55.5,29.99,North,-999,0.0,0.0,81,0.00,,,-99.99,WeatherLink 5.7,2013-04-21 08:30:00,
2013-04-21 04:45:00,61.6,55.7,29.99,North,0,0.0,4.0,81,0.00,,,-99.99,WeatherLink 5.7,2013-04-21 08:45:00,
2013-04-21 05:00:00,61.6,55.7,29.99,North,0,0.0,9.0,81,0.00,,,-99.99,WeatherLink 5.7,2013-04-21 09:00:00,
2013-04-21 05:15:00,61.8,55.9,29.99,North,0,0.0,6.0,81,0.00,,,-99.99,WeatherLink 5.7,2013-04-21 09:15:00,
2013-04-21 05:30:00,61.8,55.9,29.99,North,0,0.0,3.0,81,0.00,,,-99.99,WeatherLink 5.7,2013-04-21 09:30:00,
2013-04-21 05:45:00,61.8,56.2,29.99,North,-999,0.0,0.0,82,0.00,,,-99.99,WeatherLink 5.7,2013-04-21 09:45:00,
2013-04-21 06:00:00,61.9,56.3,29.98,North,0,0.0,5.0,82,0.00,,,-99.99,WeatherLink 5.7,2013-04-21 10:00:00,
2013-04-21 06:15:00,62.0,56.4,29.99,North,0,0.0,4.0,82,0.00,,,-99.99,WeatherLink 5.7,2013-04-21 10:15:00,
2013-04-21 06:30:00,62.0,56.4,29.99,North,0,0.0,4.0,82,0.00,,,-99.99,WeatherLink 5.7,2013-04-21 10:30:00,
2013-04-21 06:45:00,62.1,56.9,30.00,North,0,0.0,4.0,83,0.00,,,-99.99,WeatherLink 5.7,2013-04-21 10:45:00,
2013-04-21 07:00:00,62.2,57.0,30.01,North,0,0.0,4.0,83,0.00,,,-99.99,WeatherLink 5.7,2013-04-21 11:00:00,
2013-04-21 07:15:00,62.4,57.2,30.01,North,0,0.0,5.0,83,0.00,,,-99.99,WeatherLink 5.7,2013-04-21 11:15:00,
2013-04-21 07:30:00,62.5,57.3,30.01,North,-999,0.0,0.0,83,0.00,,,-99.99,WeatherLink 5.7,2013-04-21 11:30:00,
2013-04-21 07:45:00,62.8,57.6,30.01,North,0,0.0,2.0,83,0.00,,,-99.99,WeatherLink 5.7,2013-04-21 11:45:00,
2013-04-21 08:00:00,63.2,57.9,30.01,North,0,0.0,3.0,83,0.00,,,-99.99,WeatherLink 5.7,2013-04-21 12:00:00,
2013-04-21 08:15:00,63.6,58.3,30.01,North,0,0.0,5.0,83,0.00,,,-99.99,WeatherLink 5.7,2013-04-21 12:15:00,
2013-04-21 08:30:00,64.0,58.7,30.01,North,0,0.0,2.0,83,0.00,,,-99.99,WeatherLink 5.7,2013-04-21 12:30:00,
2013-04-21 08:45:00,64.7,59.1,30.00,North,0,0.0,4.0,82,0.00,,,-99.99,WeatherLink 5.7,2013-04-21 12:45:00,
2013-04-21 09:00:00,65.5,59.9,30.01,North,0,0.0,5.0,82,0.00,,,-99.99,WeatherLink 5.7,2013-04-21 13:00:00,
2013-04-21 09:15:00,66.6,60.2,30.00,North,0,0.0,6.0,80,0.00,,,-99.99,WeatherLink 5.7,2013-04-21 13:15:00,
2013-04-21 09:30:00,68.2,61.4,30.01,North,0,0.0,6.0,79,0.00,,,-99.99,WeatherLink 5.7,2013-04-21 13:30:00,
2013-04-21 09:45:00,70.1,62.2,30.02,North,0,1.0,6.0,76,0.00,,,-99.99,WeatherLink 5.7,2013-04-21 13:45:00,
2013-04-21 10:00:00,71.9,63.2,30.02,North,0,0.0,2.0,74,0.00,,,-99.99,WeatherLink 5.7,2013-04-21 14:00:00,
2013-04-21 10:15:00,73.6,63.6,30.02,North,0,0.0,9.0,71,0.00,,,-99.99,WeatherLink 5.7,2013-04-21 14:15:00,
2013-04-21 10:30:00,74.8,64.4,30.02,North,0,0.0,6.0,70,0.00,,,-99.99,WeatherLink 5.7,2013-04-21 14:30:00,
2013-04-21 10:45:00,76.0,64.7,30.02,North,0,1.0,9.0,68,0.00,,,-99.99,WeatherLink 5.7,2013-04-21 14:45:00,
2013-04-21 11:00:00,77.3,65.5,30.02,North,0,0.0,5.0,67,0.00,,,-99.99,WeatherLink 5.7,2013-04-21 15:00:00,
2013-04-21 11:15:00,78.5,65.8,30.03,North,0,0.0,7.0,65,0.00,,,-99.99,WeatherLink 5.7,2013-04-21 15:15:00,
2013-04-21 11:30:00,79.2,65.5,30.03,North,0,1.0,10.0,63,0.00,,,-99.99,WeatherLink 5.7,2013-04-21 15:30:00,
2013-04-21 11:45:00,80.0,66.3,30.02,North,0,0.0,6.0,63,0.00,,,-99.99,WeatherLink 5.7,2013-04-21 15:45:00,
2013-04-21 12:00:00,81.0,66.8,30.02,North,0,0.0,5.0,62,0.00,,,-99.99,WeatherLink 5.7,2013-04-21 16:00:00,
2013-04-21 12:15:00,81.1,66.4,30.02,North,0,0.0,6.0,61,0.00,,,-99.99,WeatherLink 5.7,2013-04-21 16:15:00,
2013-04-21 12:30:00,81.1,66.4,30.01,North,0,0.0,7.0,61,0.00,,,-99.99,WeatherLink 5.7,2013-04-21 16:30:00,
2013-04-21 12:45:00,81.3,66.1,30.01,North,0,0.0,10.0,60,0.00,,,-99.99,WeatherLink 5.7,2013-04-21 16:45:00,
2013-04-21 13:00:00,81.1,66.8,30.01,North,0,0.0,5.0,62,0.00,,,-99.99,WeatherLink 5.7,2013-04-21 17:00:00,
2013-04-21 13:15:00,81.3,67.0,30.00,North,0,0.0,5.0,62,0.00,,,-99.99,WeatherLink 5.7,2013-04-21 17:15:00,
2013-04-21 13:30:00,82.1,66.8,30.00,North,0,0.0,8.0,60,0.00,,,-99.99,WeatherLink 5.7,2013-04-21 17:30:00,
2013-04-21 13:45:00,82.6,66.8,30.00,North,0,0.0,6.0,59,0.00,,,-99.99,WeatherLink 5.7,2013-04-21 17:45:00,
2013-04-21 14:00:00,83.0,67.2,29.99,North,0,0.0,5.0,59,0.00,,,-99.99,WeatherLink 5.7,2013-04-21 18:00:00,
2013-04-21 14:15:00,83.3,67.0,29.98,North,0,0.0,8.0,58,0.00,,,-99.99,WeatherLink 5.7,2013-04-21 18:15:00,
2013-04-21 14:30:00,83.1,67.3,29.98,North,0,0.0,2.0,59,0.00,,,-99.99,WeatherLink 5.7,2013-04-21 18:30:00,
2013-04-21 14:45:00,82.9,67.1,29.97,North,0,0.0,4.0,59,0.00,,,-99.99,WeatherLink 5.7,2013-04-21 18:45:00,
2013-04-21 15:00:00,82.4,66.6,29.97,North,-999,0.0,0.0,59,0.00,,,-99.99,WeatherLink 5.7,2013-04-21 19:00:00,
2013-04-21 15:15:00,81.9,66.2,29.96,North,-999,0.0,0.0,59,0.00,,,-99.99,WeatherLink 5.7,2013-04-21 19:15:00,
2013-04-21 15:30:00,81.4,66.2,29.94,North,0,0.0,5.0,60,0.00,,,-99.99,WeatherLink 5.7,2013-04-21 19:30:00,
2013-04-21 15:45:00,80.9,66.7,29.94,North,0,0.0,4.0,62,0.00,,,-99.99,WeatherLink 5.7,2013-04-21 19:45:00,
2013-04-21 16:00:00,80.7,66.5,29.95,North,-999,0.0,0.0,62,0.00,,,-99.99,WeatherLink 5.7,2013-04-21 20:00:00,
2013-04-21 16:15:00,80.2,67.4,29.96,North,-999,0.0,0.0,65,0.00,,,-99.99,WeatherLink 5.7,2013-04-21 20:15:00,
2013-04-21 16:30:00,79.2,67.7,29.97,North,-999,0.0,0.0,68,0.01,,,-99.99,WeatherLink 5.7,2013-04-21 20:30:00,
2013-04-21 16:45:00,77.6,67.4,29.96,North,-999,0.0,0.0,71,0.02,,,-99.99,WeatherLink 5.7,2013-04-21 20:45:00,
2013-04-21 17:00:00,76.2,66.9,29.95,North,0,0.0,5.0,73,0.03,,,-99.99,WeatherLink 5.7,2013-04-21 21:00:00,
2013-04-21 17:15:00,74.9,66.4,29.95,North,0,0.0,10.0,75,0.03,,,-99.99,WeatherLink 5.7,2013-04-21 21:15:00,
2013-04-21 17:30:00,74.0,66.7,29.96,North,0,1.0,10.0,78,0.02,,,-99.99,WeatherLink 5.7,2013-04-21 21:30:00,
2013-04-21 17:45:00,73.5,66.6,29.96,North,0,1.0,9.0,79,0.01,,,-99.99,WeatherLink 5.7,2013-04-21 21:45:00,
2013-04-21 18:00:00,73.1,66.6,29.96,North,0,1.0,8.0,80,0.00,,,-99.99,WeatherLink 5.7,2013-04-21 22:00:00,
2013-04-21 18:15:00,72.8,67.0,29.97,North,0,1.0,12.0,82,0.00,,,-99.99,WeatherLink 5.7,2013-04-21 22:15:00,
2013-04-21 18:30:00,72.7,67.2,29.97,North,0,2.0,11.0,83,0.00,,,-99.99,WeatherLink 5.7,2013-04-21 22:30:00,
2013-04-21 18:45:00,72.6,67.1,29.98,North,0,1.0,10.0,83,0.00,,,-99.99,WeatherLink 5.7,2013-04-21 22:45:00,
2013-04-21 19:00:00,72.4,66.9,29.99,North,0,0.0,7.0,83,0.00,,,-99.99,WeatherLink 5.7,2013-04-21 23:00:00,
2013-04-21 19:15:00,72.1,67.0,29.99,North,0,0.0,7.0,84,0.00,,,-99.99,WeatherLink 5.7,2013-04-21 23:15:00,
2013-04-21 19:45:00,71.6,66.8,29.98,North,0,0.0,6.0,85,0.00,,,-99.99,WeatherLink 5.7,2013-04-21 23:45:00,
2013-04-21 19:54:00,71.8,66.7,29.99,North,-999,0.0,0.0,84,0.00,,,-99.99,WeatherLink 5.7,2013-04-21 23:54:00,
2013-04-21 20:00:00,71.5,66.8,29.98,North,0,0.0,7.0,85,0.00,,,-99.99,WeatherLink 5.7,2013-04-22 00:00:00,
2013-04-21 20:15:00,71.3,66.9,29.97,North,0,0.0,8.0,86,0.00,,,-99.99,WeatherLink 5.7,2013-04-22 00:15:00,
2013-04-21 20:30:00,71.0,66.6,29.97,North,0,1.0,10.0,86,0.00,,,-99.99,WeatherLink 5.7,2013-04-22 00:30:00,
2013-04-21 21:09:00,70.8,66.4,29.97,North,0,0.0,6.0,86,0.00,,,-99.99,WeatherLink 5.7,2013-04-22 01:09:00,
2013-04-21 21:15:00,70.1,65.7,29.99,North,0,0.0,3.0,86,0.00,,,-99.99,WeatherLink 5.7,2013-04-22 01:15:00,
2013-04-21 21:24:00,70.4,66.0,29.98,North,0,0.0,4.0,86,0.00,,,-99.99,WeatherLink 5.7,2013-04-22 01:24:00,
2013-04-21 21:30:00,69.9,65.5,29.99,North,0,0.0,6.0,86,0.00,,,-99.99,WeatherLink 5.7,2013-04-22 01:30:00,
2013-04-21 21:45:00,69.7,65.7,30.00,North,-999,0.0,0.0,87,0.00,,,-99.99,WeatherLink 5.7,2013-04-22 01:45:00,
2013-04-21 22:00:00,69.5,65.5,30.01,North,-999,0.0,0.0,87,0.00,,,-99.99,WeatherLink 5.7,2013-04-22 02:00:00,
2013-04-21 22:30:00,69.2,65.2,30.00,North,-999,0.0,0.0,87,0.00,,,-99.99,WeatherLink 5.7,2013-04-22 02:30:00,
2013-04-21 22:39:00,69.4,65.4,30.00,North,-999,0.0,0.0,87,0.00,,,-99.99,WeatherLink 5.7,2013-04-22 02:39:00,
2013-04-21 22:45:00,68.9,64.9,30.00,North,-999,0.0,0.0,87,0.00,,,-99.99,WeatherLink 5.7,2013-04-22 02:45:00,
2013-04-21 23:00:00,68.8,64.8,30.00,North,-999,0.0,0.0,87,0.00,,,-99.99,WeatherLink 5.7,2013-04-22 03:00:00,
2013-04-21 23:15:00,68.6,64.6,29.99,North,-999,0.0,0.0,87,0.01,,,-99.99,WeatherLink 5.7,2013-04-22 03:15:00,
2013-04-21 23:30:00,68.5,64.5,29.98,North,-999,0.0,0.0,87,0.01,,,-99.99,WeatherLink 5.7,2013-04-22 03:30:00,
2013-04-21 23:45:00,68.3,64.6,29.97,North,-999,0.0,0.0,88,0.02,,,-99.99,WeatherLink 5.7,2013-04-22 03:45:00,